Time;durP1;ratioP1;P1;durP2;ratioP2;P2;SDS_P1;SDS_P2;PMS_P1;PMS_P2;Temp;Humidity;BMP_temperature;BMP_pressure;BME280_temperature;BME280_humidity;BME280_pressure;Samples;Min_cycle;Max_cycle;Signal;HPM_P1;HPM_P2
2024/03/04 00:02:23;;;;;;;125.32;47.67;;;;;;;5.13;100.00;100093.03;5080475;28;20413;-80
2024/03/04 00:04:57;;;;;;;127.80;48.60;;;;;;;5.14;100.00;100090.09;5077093;28;20423;-80
2024/03/04 00:07:25;;;;;;;120.65;47.55;;;;;;;5.14;100.00;100092.78;5073501;28;20876;-81
2024/03/04 00:09:54;;;;;;;118.38;48.40;;;;;;;5.22;100.00;100097.69;5058296;28;20431;-81
2024/03/04 00:12:22;;;;;;;117.78;47.15;;;;;;;5.15;100.00;100094.41;5061912;28;20784;-81
2024/03/04 00:14:55;;;;;;;124.90;50.23;;;;;;;5.08;100.00;100091.09;5079927;28;20423;-81
2024/03/04 00:17:29;;;;;;;126.18;49.03;;;;;;;5.08;100.00;100097.31;5079306;28;20435;-81
2024/03/04 00:20:06;;;;;;;125.87;48.10;;;;;;;5.05;100.00;100092.44;5062831;28;20435;-80
2024/03/04 00:22:42;;;;;;;133.48;49.50;;;;;;;4.98;100.00;100101.81;5063044;28;20432;-81
2024/03/04 00:25:16;;;;;;;130.32;49.35;;;;;;;5.01;100.00;100099.41;5081403;28;20416;-81
2024/03/04 00:27:49;;;;;;;129.70;49.43;;;;;;;5.02;100.00;100102.94;5078403;28;20453;-80
2024/03/04 00:30:24;;;;;;;129.00;49.10;;;;;;;5.05;100.00;100094.31;5078517;28;20412;-81
2024/03/04 00:32:57;;;;;;;121.32;47.67;;;;;;;5.11;100.00;100091.41;5076065;28;20423;-81
2024/03/04 00:35:33;;;;;;;122.55;47.72;;;;;;;5.07;100.00;100105.69;5060853;28;20431;-80
2024/03/04 00:38:06;;;;;;;122.15;48.72;;;;;;;4.99;100.00;100112.34;5064623;28;20921;-80
2024/03/04 00:40:40;;;;;;;124.20;47.85;;;;;;;4.97;100.00;100108.28;5084160;28;20417;-80
2024/03/04 00:43:08;;;;;;;127.80;49.63;;;;;;;5.00;100.00;100102.34;5063984;28;20442;-81
2024/03/04 00:45:36;;;;;;;125.80;49.83;;;;;;;5.04;100.00;100112.41;5078082;28;20417;-81
2024/03/04 00:48:09;;;;;;;125.32;49.47;;;;;;;4.99;100.00;100109.66;5076845;28;20428;-80
2024/03/04 00:50:44;;;;;;;128.02;48.67;;;;;;;4.94;100.00;100115.81;5055898;28;20425;-80
2024/03/04 00:53:17;;;;;;;136.82;51.50;;;;;;;5.00;100.00;100115.84;5060525;28;20428;-80
2024/03/04 00:55:45;;;;;;;122.72;50.40;;;;;;;4.97;100.00;100111.78;5080124;28;20427;-81
2024/03/04 00:58:18;;;;;;;125.73;49.13;;;;;;;5.05;100.00;100105.09;5079041;28;20425;-81
2024/03/04 01:00:47;;;;;;;117.93;48.83;;;;;;;5.04;100.00;100108.88;5067621;28;20429;-81
2024/03/04 01:03:15;;;;;;;124.07;48.95;;;;;;;4.95;100.00;100108.53;5075516;28;20408;-81
2024/03/04 01:05:50;;;;;;;128.23;50.95;;;;;;;4.97;100.00;100103.69;5076315;28;20433;-81
2024/03/04 01:08:24;;;;;;;127.95;50.35;;;;;;;4.98;100.00;100110.72;5076064;28;20436;-80
2024/03/04 01:10:57;;;;;;;129.13;51.30;;;;;;;5.02;100.00;100105.63;5072806;28;20410;-80
2024/03/04 01:13:32;;;;;;;128.60;50.42;;;;;;;4.94;100.00;100118.53;5059649;28;20431;-81
2024/03/04 01:16:06;;;;;;;130.70;51.58;;;;;;;4.88;100.00;100119.53;5065323;28;20426;-80
2024/03/04 01:18:35;;;;;;;136.13;51.65;;;;;;;4.91;100.00;100113.63;5078495;28;20422;-80
2024/03/04 01:21:06;;;;;;;123.90;50.13;;;;;;;4.92;100.00;100119.84;5077918;28;20418;-80
2024/03/04 01:23:40;;;;;;;135.57;51.00;;;;;;;4.96;100.00;100120.97;5079111;28;20949;-80
2024/03/04 01:26:14;;;;;;;126.43;49.87;;;;;;;4.90;100.00;100116.56;5062224;28;20416;-80
2024/03/04 01:28:49;;;;;;;133.45;52.10;;;;;;;4.90;100.00;100121.97;5061571;28;20442;-80
2024/03/04 01:31:22;;;;;;;134.00;52.00;;;;;;;4.87;100.00;100128.69;5078364;28;20423;-80
2024/03/04 01:33:50;;;;;;;127.50;49.60;;;;;;;4.81;100.00;100127.00;5061324;28;20479;-81
2024/03/04 01:36:25;;;;;;;119.93;48.00;;;;;;;4.87;100.00;100128.69;5076816;28;20772;-80
2024/03/04 01:38:53;;;;;;;120.10;49.33;;;;;;;4.88;100.00;100126.81;5056554;28;20412;-80
2024/03/04 01:41:21;;;;;;;125.75;50.88;;;;;;;4.76;100.00;100122.41;5067344;28;20406;-81
2024/03/04 01:43:50;;;;;;;118.70;47.15;;;;;;;4.86;100.00;100128.94;5080792;28;20760;-80
2024/03/04 01:46:24;;;;;;;126.05;49.08;;;;;;;4.74;100.00;100135.31;5076514;28;20427;-80
2024/03/04 01:48:57;;;;;;;119.22;48.90;;;;;;;4.80;100.00;100124.56;5056685;28;21392;-80
2024/03/04 01:51:26;;;;;;;117.05;49.42;;;;;;;4.75;100.00;100133.41;5055931;28;20434;-80
2024/03/04 01:53:54;;;;;;;116.60;48.93;;;;;;;4.65;100.00;100128.72;5058293;28;20417;-81
2024/03/04 01:56:28;;;;;;;110.05;47.53;;;;;;;4.75;100.00;100133.41;5058025;28;20422;-80
2024/03/04 01:59:01;;;;;;;117.95;48.97;;;;;;;4.64;100.00;100126.28;5060868;28;21226;-81
2024/03/04 02:01:30;;;;;;;119.15;48.55;;;;;;;4.69;100.00;100127.16;5076556;28;20864;-80
2024/03/04 02:03:58;;;;;;;113.85;48.78;;;;;;;4.61;100.00;100119.53;5057830;28;20415;-80
2024/03/04 02:06:32;;;;;;;113.18;48.50;;;;;;;4.64;100.00;100121.72;5076657;28;20443;-80
2024/03/04 02:09:01;;;;;;;116.22;46.90;;;;;;;4.60;100.00;100131.41;5061794;28;21027;-80
2024/03/04 02:11:34;;;;;;;107.25;45.63;;;;;;;4.65;100.00;100125.22;5076767;28;20781;-80
2024/03/04 02:14:02;;;;;;;112.30;47.88;;;;;;;4.55;100.00;100128.63;5060033;28;20878;-80
2024/03/04 02:16:30;;;;;;;108.77;47.90;;;;;;;4.50;100.00;100132.09;5060372;28;20522;-80
2024/03/04 02:19:04;;;;;;;110.40;47.20;;;;;;;4.57;100.00;100134.56;5066374;28;20422;-80
2024/03/04 02:21:45;;;;;;;110.70;47.33;;;;;;;4.52;100.00;100131.84;5082288;28;20419;-80
2024/03/04 02:24:15;;;;;;;107.55;46.83;;;;;;;4.58;100.00;100128.13;5083732;28;20884;-80
2024/03/04 02:26:50;;;;;;;113.65;46.40;;;;;;;4.60;100.00;100126.81;5079539;28;20427;-81
2024/03/04 02:29:23;;;;;;;112.38;46.72;;;;;;;4.53;100.00;100123.50;5081127;28;20889;-80
2024/03/04 02:31:57;;;;;;;109.95;46.80;;;;;;;4.62;100.00;100126.56;5072991;28;20430;-80
2024/03/04 02:34:31;;;;;;;110.90;47.55;;;;;;;4.49;100.00;100135.84;5081890;28;20420;-80
2024/03/04 02:36:59;;;;;;;108.22;46.83;;;;;;;4.48;100.00;100136.13;5079782;28;20853;-80
2024/03/04 02:39:29;;;;;;;102.95;44.33;;;;;;;4.53;100.00;100136.97;5083080;28;20861;-80
2024/03/04 02:42:03;;;;;;;109.22;46.38;;;;;;;4.54;100.00;100130.53;5063171;28;20766;-80
2024/03/04 02:44:32;;;;;;;101.60;46.10;;;;;;;4.40;100.00;100138.16;5076210;28;20464;-80
2024/03/04 02:47:01;;;;;;;104.97;46.00;;;;;;;4.35;100.00;100143.50;5065286;28;20416;-80
2024/03/04 02:49:35;;;;;;;100.60;44.80;;;;;;;4.33;100.00;100142.13;5066183;28;20420;-80
2024/03/04 02:52:09;;;;;;;97.47;44.03;;;;;;;4.33;100.00;100144.81;5079184;28;20428;-80
2024/03/04 02:54:43;;;;;;;101.97;44.60;;;;;;;4.28;100.00;100147.44;5080432;28;20427;-80
2024/03/04 02:57:11;;;;;;;101.20;43.92;;;;;;;4.26;100.00;100148.50;5065680;28;20423;-80
2024/03/04 02:59:41;;;;;;;102.97;44.23;;;;;;;4.21;100.00;100151.16;5082808;28;20432;-80
2024/03/04 03:02:09;;;;;;;101.82;44.95;;;;;;;4.25;100.00;100146.06;5059289;28;21087;-80
2024/03/04 03:04:42;;;;;;;97.43;43.80;;;;;;;4.32;100.00;100149.38;5067391;28;20540;-81
2024/03/04 03:07:10;;;;;;;97.13;43.83;;;;;;;4.13;100.00;100156.97;5068551;28;20431;-80
2024/03/04 03:09:45;;;;;;;90.70;42.30;;;;;;;4.24;100.00;100144.47;5077990;28;20434;-80
2024/03/04 03:12:13;;;;;;;98.60;42.80;;;;;;;4.08;100.00;100146.94;5058856;28;20425;-80
2024/03/04 03:14:46;;;;;;;103.13;43.95;;;;;;;4.04;100.00;100161.16;5082729;28;20412;-80
2024/03/04 03:17:20;;;;;;;95.45;43.17;;;;;;;3.91;100.00;100165.03;5077651;28;20440;-80
2024/03/04 03:19:53;;;;;;;101.07;43.65;;;;;;;4.03;100.00;100165.75;5080114;28;20433;-80
2024/03/04 03:22:21;;;;;;;90.18;41.28;;;;;;;3.97;100.00;100174.00;5080803;28;21006;-80
2024/03/04 03:24:56;;;;;;;92.70;41.33;;;;;;;3.98;100.00;100168.34;5080985;28;20421;-80
2024/03/04 03:27:24;;;;;;;89.93;41.03;;;;;;;3.99;100.00;100166.47;5077951;28;20435;-80
2024/03/04 03:29:52;;;;;;;88.63;41.80;;;;;;;3.85;100.00;100164.16;5059810;28;20428;-80
2024/03/04 03:32:20;;;;;;;93.47;42.25;;;;;;;3.81;100.00;100167.56;5074928;28;20430;-80
2024/03/04 03:34:53;;;;;;;94.47;43.43;;;;;;;3.96;100.00;100175.06;5080150;28;20509;-80
2024/03/04 03:37:23;;;;;;;102.35;43.35;;;;;;;3.84;100.00;100175.13;5045204;28;20427;-80
2024/03/04 03:39:58;;;;;;;103.05;45.25;;;;;;;3.84;100.00;100167.91;5079989;28;20428;-80
2024/03/04 03:42:32;;;;;;;111.38;44.55;;;;;;;3.80;100.00;100174.84;5056943;28;20427;-80
2024/03/04 03:45:06;;;;;;;104.30;43.83;;;;;;;3.85;100.00;100168.69;5079543;28;20418;-80
2024/03/04 03:47:39;;;;;;;111.80;44.35;;;;;;;3.90;100.00;100171.47;5061228;28;23032;-80
2024/03/04 03:50:12;;;;;;;107.30;44.90;;;;;;;3.85;100.00;100174.09;5063889;28;20445;-80
2024/03/04 03:52:40;;;;;;;97.28;43.30;;;;;;;3.81;100.00;100179.16;5077838;28;20428;-80
2024/03/04 03:55:15;;;;;;;109.72;44.47;;;;;;;3.78;100.00;100179.63;5079557;28;20445;-80
2024/03/04 03:57:48;;;;;;;101.45;43.88;;;;;;;3.78;100.00;100181.53;5059049;28;20426;-80
2024/03/04 04:00:21;;;;;;;103.70;44.65;;;;;;;3.79;100.00;100185.84;5065849;28;20443;-79
2024/03/04 04:02:49;;;;;;;105.45;44.72;;;;;;;3.81;100.00;100183.72;5077709;28;20420;-80
2024/03/04 04:05:18;;;;;;;106.57;44.60;;;;;;;3.78;100.00;100186.91;5058714;28;20423;-80
2024/03/04 04:07:51;;;;;;;106.38;45.03;;;;;;;3.77;100.00;100201.41;5065527;28;20433;-80
2024/03/04 04:10:21;;;;;;;105.10;44.90;;;;;;;3.79;100.00;100202.81;5063326;28;20449;-80
2024/03/04 04:12:54;;;;;;;98.95;42.92;;;;;;;3.79;100.00;100216.28;5074095;28;20423;-80
2024/03/04 04:15:27;;;;;;;108.35;43.05;;;;;;;3.82;100.00;100218.47;5073382;28;20444;-80
2024/03/04 04:17:55;;;;;;;107.03;45.83;;;;;;;3.76;100.00;100206.00;5063746;28;20884;-80
2024/03/04 04:20:28;;;;;;;108.82;45.03;;;;;;;3.83;100.00;100216.59;5057881;28;20456;-80
2024/03/04 04:23:02;;;;;;;109.05;45.53;;;;;;;3.71;100.00;100214.00;5076452;28;21117;-80
2024/03/04 04:25:37;;;;;;;98.57;42.72;;;;;;;3.75;100.00;100213.25;5079001;28;20421;-80
2024/03/04 04:28:05;;;;;;;99.78;43.22;;;;;;;3.79;100.00;100204.69;5078551;28;20913;-80
2024/03/04 04:30:36;;;;;;;100.95;43.63;;;;;;;3.69;100.00;100221.50;5075278;28;20427;-80
2024/03/04 04:33:05;;;;;;;102.05;43.90;;;;;;;3.75;100.00;100217.81;5074950;28;20430;-80
2024/03/04 04:35:33;;;;;;;101.30;43.50;;;;;;;3.78;100.00;100222.72;5060451;28;20433;-80
2024/03/04 04:38:06;;;;;;;96.77;42.93;;;;;;;3.79;100.00;100215.47;5078083;28;20426;-79
2024/03/04 04:40:41;;;;;;;96.43;42.50;;;;;;;3.82;100.00;100215.78;5067764;28;20418;-80
2024/03/04 04:43:09;;;;;;;96.70;44.05;;;;;;;3.69;100.00;100216.94;5059749;28;20445;-80
2024/03/04 04:45:42;;;;;;;104.63;44.50;;;;;;;3.84;100.00;100226.28;5075203;28;20635;-80
2024/03/04 04:48:16;;;;;;;97.43;43.13;;;;;;;3.82;100.00;100223.03;5066565;28;20430;-80
2024/03/04 04:50:44;;;;;;;91.55;42.83;;;;;;;3.75;100.00;100234.78;5057698;28;20432;-80
2024/03/04 04:53:19;;;;;;;98.80;42.88;;;;;;;3.73;100.00;100239.59;5077055;28;20902;-79
2024/03/04 04:55:48;;;;;;;93.80;42.10;;;;;;;3.68;100.00;100239.50;5062032;28;20779;-80
2024/03/04 04:58:17;;;;;;;94.57;42.40;;;;;;;3.76;100.00;100251.75;5057544;28;20729;-80
2024/03/04 05:00:52;;;;;;;94.20;42.30;;;;;;;3.67;100.00;100245.94;5076349;28;20427;-80
2024/03/04 05:03:26;;;;;;;85.88;40.67;;;;;;;3.65;100.00;100252.66;5059856;28;20429;-80
2024/03/04 05:05:54;;;;;;;94.05;42.13;;;;;;;3.60;100.00;100256.06;5060452;28;20425;-79
2024/03/04 05:08:22;;;;;;;93.28;41.45;;;;;;;3.68;100.00;100261.03;5059450;28;20448;-80
2024/03/04 05:10:52;;;;;;;95.03;42.95;;;;;;;3.58;100.00;100263.56;5075092;28;20932;-80
2024/03/04 05:13:25;;;;;;;99.32;42.85;;;;;;;3.50;100.00;100266.66;5054665;28;20432;-80
2024/03/04 05:15:58;;;;;;;95.07;43.05;;;;;;;3.63;100.00;100266.34;5058668;28;20429;-80
2024/03/04 05:18:26;;;;;;;104.70;43.73;;;;;;;3.50;100.00;100266.66;5080051;28;20427;-80
2024/03/04 05:21:00;;;;;;;104.75;43.30;;;;;;;3.53;100.00;100272.34;5056440;28;21044;-81
2024/03/04 05:23:33;;;;;;;108.05;43.75;;;;;;;3.57;100.00;100272.69;5075777;28;20429;-81
2024/03/04 05:26:03;;;;;;;105.90;45.13;;;;;;;3.59;100.00;100270.59;5078157;28;20769;-81
2024/03/04 05:28:32;;;;;;;129.05;45.67;;;;;;;3.49;100.00;100271.22;5072640;28;20408;-81
2024/03/04 05:31:05;;;;;;;124.90;46.20;;;;;;;3.55;100.00;100266.75;5057229;28;21269;-81
2024/03/04 05:33:38;;;;;;;109.03;46.17;;;;;;;3.68;100.00;100263.72;5058838;28;20421;-81
2024/03/04 05:36:11;;;;;;;153.27;45.78;;;;;;;3.74;100.00;100281.59;5077213;28;20434;-82
2024/03/04 05:38:39;;;;;;;248.55;44.40;;;;;;;3.70;100.00;100283.16;5065173;28;20434;-81
2024/03/04 05:41:10;;;;;;;369.92;45.15;;;;;;;3.63;100.00;100289.75;5056864;28;20776;-81
2024/03/04 05:43:43;;;;;;;422.48;48.22;;;;;;;3.53;100.00;100290.38;5075130;28;20425;-81
2024/03/04 05:46:17;;;;;;;296.35;47.85;;;;;;;3.64;100.00;100291.38;5076764;28;20430;-81
2024/03/04 05:48:50;;;;;;;309.90;46.92;;;;;;;3.56;100.00;100296.13;5075304;28;20430;-81
2024/03/04 05:51:23;;;;;;;377.77;49.75;;;;;;;3.50;100.00;100307.81;5077472;28;20441;-81
2024/03/04 05:53:56;;;;;;;387.00;48.80;;;;;;;3.50;100.00;100305.13;5058638;28;20997;-81
2024/03/04 05:56:31;;;;;;;344.75;46.80;;;;;;;3.64;100.00;100299.47;5077651;28;20802;-81
2024/03/04 05:59:04;;;;;;;329.55;44.92;;;;;;;3.67;100.00;100294.38;5073244;28;20415;-81
2024/03/04 06:01:32;;;;;;;367.02;42.90;;;;;;;3.69;100.00;100302.25;5076095;28;20417;-81
2024/03/04 06:04:06;;;;;;;314.58;42.83;;;;;;;3.68;100.00;100308.69;5071993;28;20431;-81
2024/03/04 06:06:34;;;;;;;365.38;46.60;;;;;;;3.77;100.00;100306.41;5075973;28;20432;-81
2024/03/04 06:09:08;;;;;;;341.23;44.85;;;;;;;3.82;100.00;100307.28;5055978;28;20425;-81
2024/03/04 06:11:38;;;;;;;296.60;44.17;;;;;;;3.70;100.00;100312.75;5074219;28;20436;-81
2024/03/04 06:14:11;;;;;;;367.27;46.15;;;;;;;3.71;100.00;100318.94;5073866;28;20558;-81
2024/03/04 06:16:39;;;;;;;323.30;44.78;;;;;;;3.81;100.00;100315.63;5057319;28;20426;-81
2024/03/04 06:19:07;;;;;;;380.50;44.65;;;;;;;3.82;100.00;100320.75;5059755;28;20423;-81
2024/03/04 06:21:42;;;;;;;341.35;43.83;;;;;;;3.86;100.00;100326.47;5061191;28;20437;-81
2024/03/04 06:24:10;;;;;;;390.25;46.78;;;;;;;3.84;100.00;100331.28;5058449;28;20424;-81
2024/03/04 06:26:45;;;;;;;175.70;44.33;;;;;;;3.94;100.00;100328.75;5072855;28;20420;-82
2024/03/04 06:29:18;;;;;;;302.97;45.20;;;;;;;3.97;100.00;100332.84;5056922;28;20509;-82
2024/03/04 06:31:46;;;;;;;291.38;43.53;;;;;;;4.08;100.00;100331.94;5063229;28;20424;-81
2024/03/04 06:34:19;;;;;;;282.83;42.75;;;;;;;3.95;100.00;100338.47;5077068;28;20428;-81
2024/03/04 06:36:53;;;;;;;177.45;43.65;;;;;;;4.00;100.00;100329.66;5074579;28;20426;-81
2024/03/04 06:39:27;;;;;;;482.88;48.00;;;;;;;3.99;100.00;100336.09;5063339;28;20428;-81
2024/03/04 06:41:57;;;;;;;329.10;45.70;;;;;;;4.04;100.00;100338.88;5075030;28;20430;-82
2024/03/04 06:44:30;;;;;;;291.67;44.28;;;;;;;4.03;100.00;100340.78;5075792;28;21718;-82
2024/03/04 06:47:04;;;;;;;313.77;44.45;;;;;;;4.06;100.00;100344.81;5062012;28;20439;-81
2024/03/04 06:49:38;;;;;;;236.85;44.28;;;;;;;4.12;100.00;100356.53;5057765;28;20427;-81
2024/03/04 06:52:06;;;;;;;251.15;44.33;;;;;;;4.15;100.00;100356.81;5056116;28;20433;-80
2024/03/04 06:54:39;;;;;;;244.85;43.78;;;;;;;4.38;100.00;100357.72;5071792;28;20446;-81
2024/03/04 06:57:17;;;;;;;214.13;42.60;;;;;;;4.20;100.00;100362.31;5055853;28;20432;-81
2024/03/04 06:59:50;;;;;;;125.90;43.55;;;;;;;4.26;100.00;100355.91;5074229;28;20449;-81
2024/03/04 07:02:23;;;;;;;301.60;43.07;;;;;;;4.26;100.00;100355.91;5070826;28;20423;-83
2024/03/04 07:04:51;;;;;;;266.95;44.65;;;;;;;4.44;100.00;100362.13;5062353;28;20441;-81
2024/03/04 07:07:25;;;;;;;353.83;46.08;;;;;;;4.31;100.00;100352.50;5073507;28;20425;-80
2024/03/04 07:09:53;;;;;;;326.30;47.05;;;;;;;4.37;100.00;100356.91;5057717;28;20419;-81
2024/03/04 07:12:27;;;;;;;347.07;45.33;;;;;;;4.38;100.00;100358.53;5078286;28;20832;-81
2024/03/04 07:15:01;;;;;;;271.92;42.40;;;;;;;4.45;100.00;100368.31;5057099;28;20426;-80
2024/03/04 07:17:34;;;;;;;320.23;44.17;;;;;;;4.42;100.00;100372.34;5076816;28;20430;-80
2024/03/04 07:20:09;;;;;;;251.32;44.22;;;;;;;4.61;100.00;100367.47;5066522;28;20427;-80
2024/03/04 07:22:37;;;;;;;371.05;46.17;;;;;;;4.48;100.00;100373.22;5065806;28;20443;-80
2024/03/04 07:25:11;;;;;;;331.77;46.53;;;;;;;4.56;100.00;100373.63;5080695;28;20433;-80
2024/03/04 07:27:45;;;;;;;294.35;45.17;;;;;;;4.71;100.00;100378.44;5062138;28;20420;-81
2024/03/04 07:30:14;;;;;;;248.03;42.83;;;;;;;4.68;100.00;100378.09;5074525;28;20473;-80
2024/03/04 07:32:48;;;;;;;299.70;45.43;;;;;;;4.58;100.00;100376.91;5058795;28;20443;-83
2024/03/04 07:35:22;;;;;;;218.45;43.13;;;;;;;4.83;100.00;100383.69;5060744;28;20430;-81
2024/03/04 07:37:50;;;;;;;263.50;43.73;;;;;;;4.85;100.00;100373.50;5077549;28;20904;-80
2024/03/04 07:40:24;;;;;;;354.42;44.50;;;;;;;4.92;100.00;100381.41;5073306;28;20929;-81
2024/03/04 07:42:58;;;;;;;216.77;42.75;;;;;;;5.11;100.00;100385.41;5078530;28;20438;-80
2024/03/04 07:45:27;;;;;;;290.60;43.65;;;;;;;5.02;100.00;100373.44;5056576;28;20428;-82
2024/03/04 07:47:56;;;;;;;241.40;44.10;;;;;;;5.21;100.00;100381.22;5055250;28;20431;-81
2024/03/04 07:50:25;;;;;;;221.82;42.25;;;;;;;5.05;100.00;100374.81;5072517;28;21759;-82
2024/03/04 07:52:53;;;;;;;267.08;46.88;;;;;;;4.95;100.00;100378.19;5073763;28;20434;-82
2024/03/04 07:55:26;;;;;;;226.00;46.05;;;;;;;4.91;100.00;100385.16;5061199;28;20429;-82
2024/03/04 07:57:54;;;;;;;187.80;43.93;;;;;;;5.05;100.00;100385.59;5078100;28;20422;-82
2024/03/04 08:00:24;;;;;;;229.25;42.15;;;;;;;5.07;100.00;100399.66;5071716;28;21528;-82
2024/03/04 08:02:57;;;;;;;215.50;42.88;;;;;;;5.32;100.00;100388.38;5061874;28;20443;-84
2024/03/04 08:05:30;;;;;;;226.90;44.83;;;;;;;5.19;100.00;100388.75;5048538;28;21820;-81
2024/03/04 08:08:00;;;;;;;256.02;44.28;;;;;;;5.43;100.00;100394.72;5062270;28;20904;-82
2024/03/04 08:10:34;;;;;;;190.45;43.42;;;;;;;5.47;100.00;100398.53;5076075;28;20429;-83
2024/03/04 08:13:07;;;;;;;143.45;43.13;;;;;;;5.68;100.00;100396.88;5060115;28;20429;-82
2024/03/04 08:15:42;;;;;;;181.07;39.33;;;;;;;5.45;100.00;100406.06;5054538;28;20917;-82
2024/03/04 08:18:15;;;;;;;148.00;42.97;;;;;;;5.59;100.00;100404.59;5058274;28;20619;-82
2024/03/04 08:20:43;;;;;;;147.32;42.38;;;;;;;5.81;100.00;100416.44;5031242;28;20434;-81
2024/03/04 08:23:16;;;;;;;246.90;43.03;;;;;;;5.41;100.00;100415.72;5067602;28;20920;-83
2024/03/04 08:25:45;;;;;;;157.88;44.40;;;;;;;5.51;100.00;100415.84;5058705;28;21372;-82
2024/03/04 08:28:13;;;;;;;225.15;44.35;;;;;;;5.51;100.00;100423.13;5047285;28;20428;-82
2024/03/04 08:30:47;;;;;;;147.43;43.35;;;;;;;5.70;100.00;100427.09;5057362;28;20531;-82
2024/03/04 08:33:16;;;;;;;209.33;45.67;;;;;;;5.89;100.00;100421.38;5036432;28;21138;-82
2024/03/04 08:35:45;;;;;;;145.90;40.60;;;;;;;5.86;100.00;100420.00;5064985;28;20419;-82
2024/03/04 08:38:18;;;;;;;194.23;43.72;;;;;;;5.84;100.00;100430.25;5059909;28;20425;-82
2024/03/04 08:40:46;;;;;;;145.23;42.67;;;;;;;5.98;100.00;100436.09;5057695;28;20418;-82
2024/03/04 08:43:15;;;;;;;136.32;42.00;;;;;;;6.00;100.00;100433.13;5061577;28;20438;-82
2024/03/04 08:45:43;;;;;;;133.82;39.90;;;;;;;6.03;100.00;100424.50;5038472;28;20426;-83
2024/03/04 08:48:12;;;;;;;143.35;42.92;;;;;;;5.87;100.00;100431.59;5038867;28;20437;-82
2024/03/04 08:50:41;;;;;;;130.23;42.90;;;;;;;6.02;100.00;100426.41;5065021;28;20426;-82
2024/03/04 08:53:14;;;;;;;133.77;42.07;;;;;;;5.90;100.00;100436.53;5038975;28;21119;-82
2024/03/04 08:55:42;;;;;;;103.32;42.90;;;;;;;5.96;100.00;100443.59;5032336;28;20422;-83
2024/03/04 08:58:15;;;;;;;95.00;43.38;;;;;;;5.99;100.00;100450.41;5041436;28;20951;-83
2024/03/04 09:00:43;;;;;;;101.30;44.08;;;;;;;6.19;100.00;100444.41;5039099;28;20441;-83
2024/03/04 09:03:18;;;;;;;98.25;45.05;;;;;;;6.43;100.00;100453.78;5063824;28;20406;-83
2024/03/04 09:05:52;;;;;;;93.00;45.30;;;;;;;6.43;100.00;100463.78;5043237;28;20425;-83
2024/03/04 09:08:26;;;;;;;95.80;44.88;;;;;;;6.87;100.00;100455.47;5042991;28;21001;-82
2024/03/04 09:11:01;;;;;;;93.80;45.78;;;;;;;6.73;100.00;100459.69;5041514;28;21098;-83
2024/03/04 09:13:35;;;;;;;99.35;47.00;;;;;;;6.73;100.00;100465.91;5062004;28;21038;-82
2024/03/04 09:16:09;;;;;;;94.72;45.80;;;;;;;6.65;100.00;100466.41;5048665;28;20430;-82
2024/03/04 09:18:44;;;;;;;96.07;45.78;;;;;;;6.73;100.00;100465.91;5033617;28;20429;-82
2024/03/04 09:21:17;;;;;;;92.22;46.35;;;;;;;6.68;100.00;100471.28;5033746;28;20476;-82
2024/03/04 09:23:47;;;;;;;94.72;46.47;;;;;;;6.85;100.00;100467.59;5045402;28;20418;-82
2024/03/04 09:26:21;;;;;;;89.15;45.28;;;;;;;6.97;100.00;100458.25;5058579;28;20436;-82
2024/03/04 09:28:50;;;;;;;90.45;45.70;;;;;;;7.18;100.00;100458.38;5041276;28;21026;-83
2024/03/04 09:31:18;;;;;;;93.17;45.97;;;;;;;7.04;100.00;100451.78;5056625;28;20421;-82
2024/03/04 09:33:53;;;;;;;91.18;46.70;;;;;;;6.94;100.00;100460.66;5041697;28;20426;-83
2024/03/04 09:36:21;;;;;;;86.05;44.55;;;;;;;7.14;100.00;100459.97;5040845;28;20426;-83
2024/03/04 09:38:54;;;;;;;91.15;45.92;;;;;;;7.31;100.00;100465.19;5061179;28;20462;-82
2024/03/04 09:41:30;;;;;;;90.15;46.40;;;;;;;7.24;100.00;100462.72;5046482;28;20445;-83
2024/03/04 09:43:58;;;;;;;86.22;45.45;;;;;;;7.42;100.00;100466.84;5059595;28;20421;-85
2024/03/04 09:46:33;;;;;;;92.20;47.13;;;;;;;7.68;100.00;100474.25;5042733;28;20423;-83
2024/03/04 09:49:09;;;;;;;90.32;47.03;;;;;;;7.58;100.00;100469.63;5049568;28;21060;-82
2024/03/04 09:51:44;;;;;;;87.75;46.15;;;;;;;7.90;100.00;100480.31;5060997;28;20841;-82
2024/03/04 09:54:19;;;;;;;86.95;45.97;;;;;;;8.04;100.00;100482.50;5056142;28;20421;-82
2024/03/04 09:56:53;;;;;;;87.03;46.45;;;;;;;7.97;100.00;100478.16;5044584;28;20448;-82
2024/03/04 09:59:22;;;;;;;87.07;46.57;;;;;;;7.87;100.00;100483.56;5061413;28;20798;-81
2024/03/04 10:01:50;;;;;;;80.87;46.40;;;;;;;8.14;100.00;100480.63;5062972;28;20449;-82
2024/03/04 10:04:26;;;;;;;83.30;45.00;;;;;;;7.96;100.00;100486.56;5039277;28;20425;-82
2024/03/04 10:06:59;;;;;;;80.85;45.45;;;;;;;7.92;100.00;100494.41;5040544;28;20436;-82
2024/03/04 10:09:34;;;;;;;79.32;43.28;;;;;;;7.82;100.00;100494.38;5058042;28;20425;-82
2024/03/04 10:12:03;;;;;;;87.35;46.33;;;;;;;7.97;100.00;100490.91;5062990;28;20417;-81
2024/03/04 10:14:31;;;;;;;89.15;48.28;;;;;;;8.20;100.00;100495.00;5053680;28;20422;-82
2024/03/04 10:17:05;;;;;;;92.28;47.83;;;;;;;8.32;100.00;100495.56;5036728;28;20426;-82
2024/03/04 10:19:39;;;;;;;83.78;45.97;;;;;;;8.48;100.00;100499.16;5005865;28;20431;-81
2024/03/04 10:22:07;;;;;;;81.65;45.53;;;;;;;8.51;100.00;100504.03;5061277;28;20418;-82
2024/03/04 10:24:41;;;;;;;75.82;44.63;;;;;;;8.56;100.00;100499.69;5044937;28;21015;-82
2024/03/04 10:27:14;;;;;;;82.97;46.00;;;;;;;8.73;100.00;100500.25;5035453;28;20433;-82
2024/03/04 10:29:42;;;;;;;82.72;45.80;;;;;;;8.92;100.00;100502.38;5038019;28;20433;-81
2024/03/04 10:32:10;;;;;;;80.53;45.33;;;;;;;8.64;100.00;100493.72;5054648;28;20429;-82
2024/03/04 10:34:40;;;;;;;76.93;44.63;;;;;;;8.63;100.00;100501.06;5037793;28;20445;-80
2024/03/04 10:37:08;;;;;;;116.13;48.97;;;;;;;8.68;100.00;100492.09;5043085;28;20440;-82
2024/03/04 10:39:37;;;;;;;75.53;44.72;;;;;;;8.72;100.00;100490.47;5044556;28;20949;-80
2024/03/04 10:42:13;;;;;;;81.57;45.60;;;;;;;8.75;100.00;100489.13;5065514;28;20462;-80
2024/03/04 10:44:42;;;;;;;80.65;46.75;;;;;;;8.88;100.00;100498.59;5044277;28;20982;-80
2024/03/04 10:47:16;;;;;;;79.63;46.03;;;;;;;9.08;100.00;100501.28;5057407;28;20447;-81
2024/03/04 10:49:51;;;;;;;74.22;43.10;;;;;;;9.33;100.00;100489.53;5062951;28;20425;-80
2024/03/04 10:52:19;;;;;;;73.03;44.70;;;;;;;9.25;100.00;100500.97;5057708;28;20426;-80
2024/03/04 10:54:53;;;;;;;72.82;44.45;;;;;;;9.29;100.00;100482.25;5041417;28;20448;-81
2024/03/04 10:57:28;;;;;;;76.33;45.70;;;;;;;9.38;100.00;100490.63;5062787;28;20476;-81
2024/03/04 11:00:17;;;;;;;72.63;44.28;;;;;;;9.33;100.00;100488.75;5060571;28;20422;-79
2024/03/04 11:02:57;;;;;;;75.43;45.33;;;;;;;9.40;100.00;100475.69;5021750;28;20437;-80
2024/03/04 11:05:33;;;;;;;71.18;44.35;;;;;;;9.49;100.00;100481.38;5039430;28;21041;-80
2024/03/04 11:08:07;;;;;;;73.32;43.33;;;;;;;9.58;100.00;100476.16;5040676;28;21126;-81
2024/03/04 11:10:42;;;;;;;69.20;42.88;;;;;;;9.61;100.00;100472.88;5044015;28;20922;-81
2024/03/04 11:13:21;;;;;;;71.03;42.03;;;;;;;9.67;100.00;100474.50;5042103;28;20437;-81
2024/03/04 11:16:00;;;;;;;72.72;43.95;;;;;;;9.69;100.00;100473.13;5043785;28;20434;-81
2024/03/04 11:18:52;;;;;;;67.85;42.70;;;;;;;9.97;100.00;100475.41;5060225;28;20889;-80
2024/03/04 11:21:22;;;;;;;65.47;41.27;;;;;;;10.24;100.00;100474.19;5030188;28;20425;-81
2024/03/04 11:23:56;;;;;;;62.17;39.63;;;;;;;10.48;100.00;100468.84;5046658;28;20410;-81
2024/03/04 11:26:30;;;;;;;59.33;36.95;;;;;;;10.49;100.00;100474.00;5038774;28;20894;-80